Terminal Aerodrome Forecast
Issued by NWS Memphis, TN

Home | Current Version | Previous Version | Text Only | Print | Product List | Glossary On
Versions: 1 2 3 4 5 6 7 8 9 10 11 12 13 14 15
523
FTUS44 KMEG 081506 AAA
TAFJBR
TAF AMD
KJBR 081506Z 0815/0912 33011G17KT P6SM BKN250
     FM081800 33010KT P6SM FEW250
     FM090000 36005KT P6SM SKC=

USA.gov is the U.S. government's official web portal to all federal, state and local government web resources and services.